sensor_id;sensor_type;location;lat;lon;timestamp;P1;durP1;ratioP1;P2;durP2;ratioP2
3274;SDS011;1649;53.672;10.064;2024-03-02T00:00:50;34.97;;;18.77;;
3274;SDS011;1649;53.672;10.064;2024-03-02T00:03:17;41.47;;;20.07;;
3274;SDS011;1649;53.672;10.064;2024-03-02T00:05:43;41.57;;;20.27;;
3274;SDS011;1649;53.672;10.064;2024-03-02T00:08:09;33.07;;;18.33;;
3274;SDS011;1649;53.672;10.064;2024-03-02T00:10:38;35.63;;;20.30;;
3274;SDS011;1649;53.672;10.064;2024-03-02T00:13:07;37.77;;;20.83;;
3274;SDS011;1649;53.672;10.064;2024-03-02T00:18:12;38.43;;;19.33;;
3274;SDS011;1649;53.672;10.064;2024-03-02T00:20:40;35.47;;;19.67;;
3274;SDS011;1649;53.672;10.064;2024-03-02T00:23:07;35.73;;;19.57;;
3274;SDS011;1649;53.672;10.064;2024-03-02T00:25:43;38.10;;;20.73;;
3274;SDS011;1649;53.672;10.064;2024-03-02T00:28:16;39.83;;;19.67;;
3274;SDS011;1649;53.672;10.064;2024-03-02T00:33:40;40.17;;;20.50;;
3274;SDS011;1649;53.672;10.064;2024-03-02T00:36:11;42.13;;;20.90;;
3274;SDS011;1649;53.672;10.064;2024-03-02T00:38:47;37.20;;;20.80;;
3274;SDS011;1649;53.672;10.064;2024-03-02T00:41:24;40.33;;;20.80;;
3274;SDS011;1649;53.672;10.064;2024-03-02T00:43:56;45.77;;;23.50;;
3274;SDS011;1649;53.672;10.064;2024-03-02T00:46:30;48.10;;;23.30;;
3274;SDS011;1649;53.672;10.064;2024-03-02T00:48:59;43.60;;;21.10;;
3274;SDS011;1649;53.672;10.064;2024-03-02T00:51:26;43.53;;;22.70;;
3274;SDS011;1649;53.672;10.064;2024-03-02T00:53:54;51.47;;;24.90;;
3274;SDS011;1649;53.672;10.064;2024-03-02T00:56:23;43.97;;;24.53;;
3274;SDS011;1649;53.672;10.064;2024-03-02T00:58:50;46.40;;;23.27;;
3274;SDS011;1649;53.672;10.064;2024-03-02T01:01:16;44.33;;;23.67;;
3274;SDS011;1649;53.672;10.064;2024-03-02T01:03:42;47.43;;;25.17;;
3274;SDS011;1649;53.672;10.064;2024-03-02T01:06:07;53.67;;;25.13;;
3274;SDS011;1649;53.672;10.064;2024-03-02T01:08:34;43.50;;;23.97;;
3274;SDS011;1649;53.672;10.064;2024-03-02T01:11:00;48.50;;;25.77;;
3274;SDS011;1649;53.672;10.064;2024-03-02T01:13:26;53.63;;;24.67;;
3274;SDS011;1649;53.672;10.064;2024-03-02T01:15:51;47.33;;;23.10;;
3274;SDS011;1649;53.672;10.064;2024-03-02T01:18:18;54.87;;;25.57;;
3274;SDS011;1649;53.672;10.064;2024-03-02T01:20:43;51.50;;;24.00;;
3274;SDS011;1649;53.672;10.064;2024-03-02T01:23:09;50.47;;;25.60;;
3274;SDS011;1649;53.672;10.064;2024-03-02T01:25:34;58.30;;;27.03;;
3274;SDS011;1649;53.672;10.064;2024-03-02T01:28:00;53.03;;;26.73;;
3274;SDS011;1649;53.672;10.064;2024-03-02T01:30:26;53.83;;;26.70;;
3274;SDS011;1649;53.672;10.064;2024-03-02T01:32:51;52.53;;;25.47;;
3274;SDS011;1649;53.672;10.064;2024-03-02T01:35:17;57.60;;;25.10;;
3274;SDS011;1649;53.672;10.064;2024-03-02T01:37:43;50.53;;;25.20;;
3274;SDS011;1649;53.672;10.064;2024-03-02T01:40:08;49.80;;;26.17;;
3274;SDS011;1649;53.672;10.064;2024-03-02T01:42:36;51.60;;;25.03;;
3274;SDS011;1649;53.672;10.064;2024-03-02T01:45:02;55.30;;;26.77;;
3274;SDS011;1649;53.672;10.064;2024-03-02T01:47:29;51.60;;;26.90;;
3274;SDS011;1649;53.672;10.064;2024-03-02T01:49:55;54.13;;;26.63;;
3274;SDS011;1649;53.672;10.064;2024-03-02T01:52:20;49.50;;;25.73;;
3274;SDS011;1649;53.672;10.064;2024-03-02T01:54:46;51.67;;;24.00;;
3274;SDS011;1649;53.672;10.064;2024-03-02T01:57:11;49.77;;;26.33;;
3274;SDS011;1649;53.672;10.064;2024-03-02T01:59:37;51.73;;;26.70;;
3274;SDS011;1649;53.672;10.064;2024-03-02T02:02:02;52.20;;;25.80;;
3274;SDS011;1649;53.672;10.064;2024-03-02T02:04:28;49.20;;;23.97;;
3274;SDS011;1649;53.672;10.064;2024-03-02T02:06:54;52.10;;;25.90;;
3274;SDS011;1649;53.672;10.064;2024-03-02T02:09:19;51.33;;;24.73;;
3274;SDS011;1649;53.672;10.064;2024-03-02T02:11:45;53.17;;;26.40;;
3274;SDS011;1649;53.672;10.064;2024-03-02T02:14:10;45.40;;;25.10;;
3274;SDS011;1649;53.672;10.064;2024-03-02T02:16:36;49.10;;;25.80;;
3274;SDS011;1649;53.672;10.064;2024-03-02T02:19:01;48.50;;;25.00;;
3274;SDS011;1649;53.672;10.064;2024-03-02T02:21:28;49.20;;;24.27;;
3274;SDS011;1649;53.672;10.064;2024-03-02T02:23:53;48.87;;;23.97;;
3274;SDS011;1649;53.672;10.064;2024-03-02T02:26:19;46.80;;;24.63;;
3274;SDS011;1649;53.672;10.064;2024-03-02T02:28:44;48.70;;;26.73;;
3274;SDS011;1649;53.672;10.064;2024-03-02T02:31:15;50.37;;;25.73;;
3274;SDS011;1649;53.672;10.064;2024-03-02T02:33:41;54.17;;;27.27;;
3274;SDS011;1649;53.672;10.064;2024-03-02T02:36:07;51.97;;;28.57;;
3274;SDS011;1649;53.672;10.064;2024-03-02T02:38:33;56.87;;;26.40;;
3274;SDS011;1649;53.672;10.064;2024-03-02T02:41:06;50.27;;;26.33;;
3274;SDS011;1649;53.672;10.064;2024-03-02T02:43:32;53.50;;;26.90;;
3274;SDS011;1649;53.672;10.064;2024-03-02T02:45:57;48.87;;;26.37;;
3274;SDS011;1649;53.672;10.064;2024-03-02T02:48:23;56.90;;;25.97;;
3274;SDS011;1649;53.672;10.064;2024-03-02T02:50:48;52.57;;;26.30;;
3274;SDS011;1649;53.672;10.064;2024-03-02T02:53:14;55.27;;;27.40;;
3274;SDS011;1649;53.672;10.064;2024-03-02T02:55:39;53.37;;;26.87;;
3274;SDS011;1649;53.672;10.064;2024-03-02T02:58:11;55.10;;;25.47;;
3274;SDS011;1649;53.672;10.064;2024-03-02T03:00:37;46.30;;;24.10;;
3274;SDS011;1649;53.672;10.064;2024-03-02T03:03:02;60.23;;;25.83;;
3274;SDS011;1649;53.672;10.064;2024-03-02T03:05:28;55.07;;;26.47;;
3274;SDS011;1649;53.672;10.064;2024-03-02T03:07:53;49.00;;;26.20;;
3274;SDS011;1649;53.672;10.064;2024-03-02T03:10:19;50.57;;;25.37;;
3274;SDS011;1649;53.672;10.064;2024-03-02T03:12:47;48.20;;;25.90;;
3274;SDS011;1649;53.672;10.064;2024-03-02T03:15:12;48.70;;;25.27;;
3274;SDS011;1649;53.672;10.064;2024-03-02T03:17:39;52.10;;;24.90;;
3274;SDS011;1649;53.672;10.064;2024-03-02T03:20:05;50.50;;;27.17;;
3274;SDS011;1649;53.672;10.064;2024-03-02T03:22:34;56.13;;;27.43;;
3274;SDS011;1649;53.672;10.064;2024-03-02T03:25:00;52.23;;;25.90;;
3274;SDS011;1649;53.672;10.064;2024-03-02T03:27:26;51.00;;;27.27;;
3274;SDS011;1649;53.672;10.064;2024-03-02T03:29:52;59.67;;;27.30;;
3274;SDS011;1649;53.672;10.064;2024-03-02T03:32:17;50.63;;;26.27;;
3274;SDS011;1649;53.672;10.064;2024-03-02T03:34:43;51.77;;;25.40;;
3274;SDS011;1649;53.672;10.064;2024-03-02T03:37:08;46.17;;;24.43;;
3274;SDS011;1649;53.672;10.064;2024-03-02T03:39:34;49.67;;;24.90;;
3274;SDS011;1649;53.672;10.064;2024-03-02T03:42:03;52.73;;;26.93;;
3274;SDS011;1649;53.672;10.064;2024-03-02T03:44:29;52.00;;;25.33;;
3274;SDS011;1649;53.672;10.064;2024-03-02T03:46:54;50.00;;;25.10;;
3274;SDS011;1649;53.672;10.064;2024-03-02T03:49:20;51.43;;;26.30;;
3274;SDS011;1649;53.672;10.064;2024-03-02T03:51:45;56.40;;;26.23;;
3274;SDS011;1649;53.672;10.064;2024-03-02T03:54:11;47.87;;;25.10;;
3274;SDS011;1649;53.672;10.064;2024-03-02T03:56:37;48.03;;;26.87;;
3274;SDS011;1649;53.672;10.064;2024-03-02T03:59:02;50.80;;;24.17;;
3274;SDS011;1649;53.672;10.064;2024-03-02T04:01:29;42.23;;;24.57;;
3274;SDS011;1649;53.672;10.064;2024-03-02T04:03:55;56.10;;;25.57;;
3274;SDS011;1649;53.672;10.064;2024-03-02T04:06:20;51.00;;;25.37;;
3274;SDS011;1649;53.672;10.064;2024-03-02T04:08:46;46.13;;;22.80;;
3274;SDS011;1649;53.672;10.064;2024-03-02T04:11:11;51.80;;;27.23;;
3274;SDS011;1649;53.672;10.064;2024-03-02T04:13:37;50.60;;;23.87;;
3274;SDS011;1649;53.672;10.064;2024-03-02T04:16:03;51.90;;;25.73;;
3274;SDS011;1649;53.672;10.064;2024-03-02T04:18:30;50.07;;;25.00;;
3274;SDS011;1649;53.672;10.064;2024-03-02T04:20:56;46.87;;;24.50;;
3274;SDS011;1649;53.672;10.064;2024-03-02T04:23:23;45.13;;;23.23;;
3274;SDS011;1649;53.672;10.064;2024-03-02T04:25:48;44.70;;;25.37;;
3274;SDS011;1649;53.672;10.064;2024-03-02T04:28:14;55.67;;;25.70;;
3274;SDS011;1649;53.672;10.064;2024-03-02T04:30:39;51.00;;;23.93;;
3274;SDS011;1649;53.672;10.064;2024-03-02T04:33:04;48.50;;;24.97;;
3274;SDS011;1649;53.672;10.064;2024-03-02T04:35:32;59.57;;;27.77;;
3274;SDS011;1649;53.672;10.064;2024-03-02T04:37:57;48.60;;;24.40;;
3274;SDS011;1649;53.672;10.064;2024-03-02T04:40:23;46.77;;;23.87;;
3274;SDS011;1649;53.672;10.064;2024-03-02T04:42:48;47.23;;;24.50;;
3274;SDS011;1649;53.672;10.064;2024-03-02T04:45:14;45.57;;;24.00;;
3274;SDS011;1649;53.672;10.064;2024-03-02T04:47:39;50.93;;;25.40;;
3274;SDS011;1649;53.672;10.064;2024-03-02T04:50:05;51.20;;;24.13;;
3274;SDS011;1649;53.672;10.064;2024-03-02T04:52:32;41.07;;;22.60;;
3274;SDS011;1649;53.672;10.064;2024-03-02T04:54:58;53.50;;;24.53;;
3274;SDS011;1649;53.672;10.064;2024-03-02T04:57:42;48.10;;;24.67;;
3274;SDS011;1649;53.672;10.064;2024-03-02T05:00:11;48.67;;;25.30;;
3274;SDS011;1649;53.672;10.064;2024-03-02T05:02:37;47.13;;;24.00;;
3274;SDS011;1649;53.672;10.064;2024-03-02T05:05:03;51.70;;;23.87;;
3274;SDS011;1649;53.672;10.064;2024-03-02T05:07:29;47.23;;;23.43;;
3274;SDS011;1649;53.672;10.064;2024-03-02T05:09:54;47.30;;;24.40;;
3274;SDS011;1649;53.672;10.064;2024-03-02T05:12:20;44.63;;;23.27;;
3274;SDS011;1649;53.672;10.064;2024-03-02T05:15:04;41.43;;;22.37;;
3274;SDS011;1649;53.672;10.064;2024-03-02T05:17:30;43.00;;;22.50;;
3274;SDS011;1649;53.672;10.064;2024-03-02T05:19:55;52.63;;;23.50;;
3274;SDS011;1649;53.672;10.064;2024-03-02T05:22:21;43.17;;;22.80;;
3274;SDS011;1649;53.672;10.064;2024-03-02T05:24:47;47.67;;;25.83;;
3274;SDS011;1649;53.672;10.064;2024-03-02T05:27:12;47.47;;;23.00;;
3274;SDS011;1649;53.672;10.064;2024-03-02T05:29:37;42.03;;;22.90;;
3274;SDS011;1649;53.672;10.064;2024-03-02T05:32:03;41.63;;;23.60;;
3274;SDS011;1649;53.672;10.064;2024-03-02T05:34:28;48.40;;;23.23;;
3274;SDS011;1649;53.672;10.064;2024-03-02T05:36:55;43.73;;;23.77;;
3274;SDS011;1649;53.672;10.064;2024-03-02T05:39:22;45.67;;;24.07;;
3274;SDS011;1649;53.672;10.064;2024-03-02T05:41:48;45.27;;;23.60;;
3274;SDS011;1649;53.672;10.064;2024-03-02T05:44:13;45.37;;;23.60;;
3274;SDS011;1649;53.672;10.064;2024-03-02T05:46:40;44.37;;;22.13;;
3274;SDS011;1649;53.672;10.064;2024-03-02T05:49:06;43.23;;;23.10;;
3274;SDS011;1649;53.672;10.064;2024-03-02T05:51:33;46.07;;;21.87;;
3274;SDS011;1649;53.672;10.064;2024-03-02T05:53:58;42.20;;;23.30;;
3274;SDS011;1649;53.672;10.064;2024-03-02T05:56:24;42.13;;;21.40;;
3274;SDS011;1649;53.672;10.064;2024-03-02T05:58:49;44.47;;;22.47;;
3274;SDS011;1649;53.672;10.064;2024-03-02T06:01:33;44.17;;;23.40;;
3274;SDS011;1649;53.672;10.064;2024-03-02T06:03:59;42.27;;;23.40;;
3274;SDS011;1649;53.672;10.064;2024-03-02T06:06:24;42.80;;;22.23;;
3274;SDS011;1649;53.672;10.064;2024-03-02T06:08:50;43.70;;;22.80;;
3274;SDS011;1649;53.672;10.064;2024-03-02T06:11:16;43.63;;;24.30;;
3274;SDS011;1649;53.672;10.064;2024-03-02T06:13:44;47.93;;;23.67;;
3274;SDS011;1649;53.672;10.064;2024-03-02T06:16:09;46.30;;;22.87;;
3274;SDS011;1649;53.672;10.064;2024-03-02T06:18:35;38.17;;;21.50;;
3274;SDS011;1649;53.672;10.064;2024-03-02T06:21:00;42.13;;;23.57;;
3274;SDS011;1649;53.672;10.064;2024-03-02T06:23:26;43.80;;;21.00;;
3274;SDS011;1649;53.672;10.064;2024-03-02T06:25:52;40.60;;;21.90;;
3274;SDS011;1649;53.672;10.064;2024-03-02T06:28:18;41.27;;;21.60;;
3274;SDS011;1649;53.672;10.064;2024-03-02T06:30:43;41.40;;;22.57;;
3274;SDS011;1649;53.672;10.064;2024-03-02T06:33:10;45.33;;;23.53;;
3274;SDS011;1649;53.672;10.064;2024-03-02T06:35:35;42.50;;;22.97;;
3274;SDS011;1649;53.672;10.064;2024-03-02T06:38:01;41.97;;;22.20;;
3274;SDS011;1649;53.672;10.064;2024-03-02T06:40:27;40.77;;;23.07;;
3274;SDS011;1649;53.672;10.064;2024-03-02T06:42:52;38.43;;;21.30;;
3274;SDS011;1649;53.672;10.064;2024-03-02T06:45:18;41.73;;;22.97;;
3274;SDS011;1649;53.672;10.064;2024-03-02T06:47:43;41.97;;;22.13;;
3274;SDS011;1649;53.672;10.064;2024-03-02T06:50:09;41.17;;;22.70;;
3274;SDS011;1649;53.672;10.064;2024-03-02T06:52:34;43.23;;;22.57;;
3274;SDS011;1649;53.672;10.064;2024-03-02T06:55:00;40.73;;;21.37;;
3274;SDS011;1649;53.672;10.064;2024-03-02T06:57:26;38.87;;;21.87;;
3274;SDS011;1649;53.672;10.064;2024-03-02T06:59:51;41.83;;;20.80;;
3274;SDS011;1649;53.672;10.064;2024-03-02T07:02:19;37.80;;;19.97;;
3274;SDS011;1649;53.672;10.064;2024-03-02T07:04:45;40.23;;;22.20;;
3274;SDS011;1649;53.672;10.064;2024-03-02T07:07:11;38.20;;;21.40;;
3274;SDS011;1649;53.672;10.064;2024-03-02T07:09:37;42.50;;;21.83;;
3274;SDS011;1649;53.672;10.064;2024-03-02T07:12:03;39.67;;;21.67;;
3274;SDS011;1649;53.672;10.064;2024-03-02T07:14:29;37.50;;;21.20;;
3274;SDS011;1649;53.672;10.064;2024-03-02T07:17:13;40.40;;;22.87;;
3274;SDS011;1649;53.672;10.064;2024-03-02T07:19:39;37.13;;;20.43;;
3274;SDS011;1649;53.672;10.064;2024-03-02T07:22:07;39.83;;;21.47;;
3274;SDS011;1649;53.672;10.064;2024-03-02T07:24:38;42.13;;;20.97;;
3274;SDS011;1649;53.672;10.064;2024-03-02T07:27:07;44.03;;;20.40;;
3274;SDS011;1649;53.672;10.064;2024-03-02T07:29:37;38.10;;;20.63;;
3274;SDS011;1649;53.672;10.064;2024-03-02T07:32:04;40.27;;;21.30;;
3274;SDS011;1649;53.672;10.064;2024-03-02T07:34:30;33.83;;;19.53;;
3274;SDS011;1649;53.672;10.064;2024-03-02T07:36:55;37.30;;;20.00;;
3274;SDS011;1649;53.672;10.064;2024-03-02T07:39:21;42.83;;;20.70;;
3274;SDS011;1649;53.672;10.064;2024-03-02T07:41:47;42.03;;;20.70;;
3274;SDS011;1649;53.672;10.064;2024-03-02T07:44:13;37.67;;;20.90;;
3274;SDS011;1649;53.672;10.064;2024-03-02T07:46:40;36.87;;;20.40;;
3274;SDS011;1649;53.672;10.064;2024-03-02T07:49:06;35.30;;;19.73;;
3274;SDS011;1649;53.672;10.064;2024-03-02T07:51:32;36.50;;;20.90;;
3274;SDS011;1649;53.672;10.064;2024-03-02T07:53:57;37.07;;;21.17;;
3274;SDS011;1649;53.672;10.064;2024-03-02T07:56:23;35.90;;;20.10;;
3274;SDS011;1649;53.672;10.064;2024-03-02T07:58:48;38.23;;;20.07;;
3274;SDS011;1649;53.672;10.064;2024-03-02T08:01:14;35.83;;;19.37;;
3274;SDS011;1649;53.672;10.064;2024-03-02T08:03:40;36.60;;;18.87;;
3274;SDS011;1649;53.672;10.064;2024-03-02T08:06:05;33.37;;;18.47;;
3274;SDS011;1649;53.672;10.064;2024-03-02T08:08:31;36.23;;;20.23;;
3274;SDS011;1649;53.672;10.064;2024-03-02T08:10:57;32.63;;;18.63;;
3274;SDS011;1649;53.672;10.064;2024-03-02T08:13:22;38.33;;;20.43;;
3274;SDS011;1649;53.672;10.064;2024-03-02T08:15:48;37.97;;;21.20;;
3274;SDS011;1649;53.672;10.064;2024-03-02T08:18:13;33.17;;;20.17;;
3274;SDS011;1649;53.672;10.064;2024-03-02T08:20:39;31.43;;;19.37;;
3274;SDS011;1649;53.672;10.064;2024-03-02T08:23:05;34.77;;;19.00;;
3274;SDS011;1649;53.672;10.064;2024-03-02T08:25:31;35.37;;;19.20;;
3274;SDS011;1649;53.672;10.064;2024-03-02T08:27:57;31.87;;;17.73;;
3274;SDS011;1649;53.672;10.064;2024-03-02T08:30:23;31.10;;;18.63;;
3274;SDS011;1649;53.672;10.064;2024-03-02T08:32:48;34.47;;;19.67;;
3274;SDS011;1649;53.672;10.064;2024-03-02T08:35:14;32.97;;;18.30;;
3274;SDS011;1649;53.672;10.064;2024-03-02T08:37:40;35.40;;;18.30;;
3274;SDS011;1649;53.672;10.064;2024-03-02T08:40:07;31.47;;;17.83;;
3274;SDS011;1649;53.672;10.064;2024-03-02T08:42:33;41.37;;;18.90;;
3274;SDS011;1649;53.672;10.064;2024-03-02T08:44:59;36.80;;;18.47;;
3274;SDS011;1649;53.672;10.064;2024-03-02T08:47:26;33.17;;;18.10;;
3274;SDS011;1649;53.672;10.064;2024-03-02T08:49:52;32.73;;;19.63;;
3274;SDS011;1649;53.672;10.064;2024-03-02T08:52:17;30.87;;;18.30;;
3274;SDS011;1649;53.672;10.064;2024-03-02T08:54:43;30.80;;;17.70;;
3274;SDS011;1649;53.672;10.064;2024-03-02T08:57:08;34.77;;;17.90;;
3274;SDS011;1649;53.672;10.064;2024-03-02T08:59:34;30.37;;;17.47;;
3274;SDS011;1649;53.672;10.064;2024-03-02T09:01:59;34.43;;;18.97;;
3274;SDS011;1649;53.672;10.064;2024-03-02T09:04:25;30.13;;;14.67;;
3274;SDS011;1649;53.672;10.064;2024-03-02T09:06:50;28.23;;;17.40;;
3274;SDS011;1649;53.672;10.064;2024-03-02T09:09:16;31.13;;;17.83;;
3274;SDS011;1649;53.672;10.064;2024-03-02T09:11:41;29.93;;;18.03;;
3274;SDS011;1649;53.672;10.064;2024-03-02T09:14:07;32.63;;;16.97;;
3274;SDS011;1649;53.672;10.064;2024-03-02T09:16:32;32.60;;;16.00;;
3274;SDS011;1649;53.672;10.064;2024-03-02T09:18:58;34.00;;;18.63;;
3274;SDS011;1649;53.672;10.064;2024-03-02T09:21:23;34.23;;;17.40;;
3274;SDS011;1649;53.672;10.064;2024-03-02T09:23:50;25.90;;;15.70;;
3274;SDS011;1649;53.672;10.064;2024-03-02T09:26:15;30.50;;;16.00;;
3274;SDS011;1649;53.672;10.064;2024-03-02T09:28:44;29.07;;;16.87;;
3274;SDS011;1649;53.672;10.064;2024-03-02T09:31:10;27.30;;;15.47;;
3274;SDS011;1649;53.672;10.064;2024-03-02T09:33:36;25.23;;;15.60;;
3274;SDS011;1649;53.672;10.064;2024-03-02T09:36:04;24.93;;;14.70;;
3274;SDS011;1649;53.672;10.064;2024-03-02T09:38:31;22.97;;;14.80;;
3274;SDS011;1649;53.672;10.064;2024-03-02T09:40:59;26.57;;;14.90;;
3274;SDS011;1649;53.672;10.064;2024-03-02T09:43:25;26.20;;;15.70;;
3274;SDS011;1649;53.672;10.064;2024-03-02T09:45:51;26.40;;;15.43;;
3274;SDS011;1649;53.672;10.064;2024-03-02T09:48:18;25.00;;;14.00;;
3274;SDS011;1649;53.672;10.064;2024-03-02T09:50:45;25.83;;;14.57;;
3274;SDS011;1649;53.672;10.064;2024-03-02T09:53:11;22.83;;;14.57;;
3274;SDS011;1649;53.672;10.064;2024-03-02T09:55:37;22.70;;;13.40;;
3274;SDS011;1649;53.672;10.064;2024-03-02T09:58:04;25.93;;;15.50;;
3274;SDS011;1649;53.672;10.064;2024-03-02T10:00:29;26.03;;;15.60;;
3274;SDS011;1649;53.672;10.064;2024-03-02T10:02:55;23.07;;;15.90;;
3274;SDS011;1649;53.672;10.064;2024-03-02T10:05:24;24.50;;;14.63;;
3274;SDS011;1649;53.672;10.064;2024-03-02T10:08:00;23.37;;;14.27;;
3274;SDS011;1649;53.672;10.064;2024-03-02T10:10:37;26.50;;;13.60;;
3274;SDS011;1649;53.672;10.064;2024-03-02T10:13:10;23.43;;;14.13;;
3274;SDS011;1649;53.672;10.064;2024-03-02T10:15:38;27.80;;;15.00;;
3274;SDS011;1649;53.672;10.064;2024-03-02T10:18:11;26.53;;;13.90;;
3274;SDS011;1649;53.672;10.064;2024-03-02T10:20:37;25.10;;;14.47;;
3274;SDS011;1649;53.672;10.064;2024-03-02T10:23:10;22.13;;;14.20;;
3274;SDS011;1649;53.672;10.064;2024-03-02T10:25:37;22.20;;;14.07;;
3274;SDS011;1649;53.672;10.064;2024-03-02T10:28:03;24.93;;;14.00;;
3274;SDS011;1649;53.672;10.064;2024-03-02T10:30:30;22.13;;;13.03;;
3274;SDS011;1649;53.672;10.064;2024-03-02T10:32:56;21.83;;;14.67;;
3274;SDS011;1649;53.672;10.064;2024-03-02T10:35:22;23.47;;;12.47;;
3274;SDS011;1649;53.672;10.064;2024-03-02T10:37:48;21.90;;;13.60;;
3274;SDS011;1649;53.672;10.064;2024-03-02T10:40:14;21.83;;;12.70;;
3274;SDS011;1649;53.672;10.064;2024-03-02T10:42:41;19.17;;;12.90;;
3274;SDS011;1649;53.672;10.064;2024-03-02T10:45:07;20.30;;;13.30;;
3274;SDS011;1649;53.672;10.064;2024-03-02T10:47:37;20.00;;;11.53;;
3274;SDS011;1649;53.672;10.064;2024-03-02T10:50:04;23.70;;;12.07;;
3274;SDS011;1649;53.672;10.064;2024-03-02T10:52:33;21.00;;;11.93;;
3274;SDS011;1649;53.672;10.064;2024-03-02T10:55:02;24.47;;;13.20;;
3274;SDS011;1649;53.672;10.064;2024-03-02T10:57:32;19.80;;;12.30;;
3274;SDS011;1649;53.672;10.064;2024-03-02T11:00:16;19.90;;;12.73;;
3274;SDS011;1649;53.672;10.064;2024-03-02T11:02:46;20.50;;;12.63;;
3274;SDS011;1649;53.672;10.064;2024-03-02T11:05:39;20.70;;;12.30;;
3274;SDS011;1649;53.672;10.064;2024-03-02T11:08:08;20.53;;;12.43;;
3274;SDS011;1649;53.672;10.064;2024-03-02T11:10:47;21.07;;;12.10;;
3274;SDS011;1649;53.672;10.064;2024-03-02T11:13:24;22.03;;;12.20;;
3274;SDS011;1649;53.672;10.064;2024-03-02T11:15:56;17.43;;;11.40;;
3274;SDS011;1649;53.672;10.064;2024-03-02T11:18:24;18.53;;;11.90;;
3274;SDS011;1649;53.672;10.064;2024-03-02T11:20:51;21.17;;;11.43;;
3274;SDS011;1649;53.672;10.064;2024-03-02T11:23:17;20.77;;;12.13;;
3274;SDS011;1649;53.672;10.064;2024-03-02T11:25:42;16.90;;;10.87;;
3274;SDS011;1649;53.672;10.064;2024-03-02T11:28:08;18.13;;;10.53;;
3274;SDS011;1649;53.672;10.064;2024-03-02T11:35:39;17.60;;;10.87;;
3274;SDS011;1649;53.672;10.064;2024-03-02T11:38:13;21.40;;;12.20;;
3274;SDS011;1649;53.672;10.064;2024-03-02T11:40:39;16.70;;;10.80;;
3274;SDS011;1649;53.672;10.064;2024-03-02T11:43:05;17.53;;;10.40;;
3274;SDS011;1649;53.672;10.064;2024-03-02T11:45:33;18.07;;;11.30;;
3274;SDS011;1649;53.672;10.064;2024-03-02T11:47:59;17.37;;;11.77;;
3274;SDS011;1649;53.672;10.064;2024-03-02T11:50:33;17.57;;;10.53;;
3274;SDS011;1649;53.672;10.064;2024-03-02T11:53:12;20.00;;;12.40;;
3274;SDS011;1649;53.672;10.064;2024-03-02T11:55:39;17.50;;;11.80;;
3274;SDS011;1649;53.672;10.064;2024-03-02T11:58:11;19.90;;;12.17;;
3274;SDS011;1649;53.672;10.064;2024-03-02T12:00:37;17.90;;;10.70;;
3274;SDS011;1649;53.672;10.064;2024-03-02T12:03:04;18.23;;;11.63;;
3274;SDS011;1649;53.672;10.064;2024-03-02T12:05:34;20.10;;;12.50;;
3274;SDS011;1649;53.672;10.064;2024-03-02T12:08:00;19.37;;;11.40;;
3274;SDS011;1649;53.672;10.064;2024-03-02T12:10:31;20.67;;;11.40;;
3274;SDS011;1649;53.672;10.064;2024-03-02T12:13:04;19.20;;;11.83;;
3274;SDS011;1649;53.672;10.064;2024-03-02T12:15:36;17.73;;;10.80;;
3274;SDS011;1649;53.672;10.064;2024-03-02T12:18:03;17.93;;;10.63;;
3274;SDS011;1649;53.672;10.064;2024-03-02T12:20:29;18.90;;;10.63;;
3274;SDS011;1649;53.672;10.064;2024-03-02T12:23:00;17.70;;;10.47;;
3274;SDS011;1649;53.672;10.064;2024-03-02T12:25:27;15.97;;;9.40;;
3274;SDS011;1649;53.672;10.064;2024-03-02T12:27:54;18.30;;;10.27;;
3274;SDS011;1649;53.672;10.064;2024-03-02T12:30:21;18.33;;;10.37;;
3274;SDS011;1649;53.672;10.064;2024-03-02T12:32:47;16.53;;;9.23;;
3274;SDS011;1649;53.672;10.064;2024-03-02T12:35:14;14.03;;;9.43;;
3274;SDS011;1649;53.672;10.064;2024-03-02T12:37:47;17.80;;;10.27;;
3274;SDS011;1649;53.672;10.064;2024-03-02T12:40:14;15.60;;;9.73;;
3274;SDS011;1649;53.672;10.064;2024-03-02T12:42:43;18.47;;;9.90;;
3274;SDS011;1649;53.672;10.064;2024-03-02T12:45:09;17.47;;;10.70;;
3274;SDS011;1649;53.672;10.064;2024-03-02T12:47:35;17.73;;;11.03;;
3274;SDS011;1649;53.672;10.064;2024-03-02T12:50:02;16.60;;;10.13;;
3274;SDS011;1649;53.672;10.064;2024-03-02T12:52:28;19.30;;;11.20;;
3274;SDS011;1649;53.672;10.064;2024-03-02T12:54:54;20.40;;;11.60;;
3274;SDS011;1649;53.672;10.064;2024-03-02T12:57:24;20.17;;;10.13;;
3274;SDS011;1649;53.672;10.064;2024-03-02T12:59:52;19.80;;;11.13;;
3274;SDS011;1649;53.672;10.064;2024-03-02T13:02:18;17.67;;;10.90;;
3274;SDS011;1649;53.672;10.064;2024-03-02T13:04:43;20.27;;;11.43;;
3274;SDS011;1649;53.672;10.064;2024-03-02T13:07:10;17.10;;;10.77;;
3274;SDS011;1649;53.672;10.064;2024-03-02T13:09:39;20.00;;;11.97;;
3274;SDS011;1649;53.672;10.064;2024-03-02T13:12:04;16.90;;;10.70;;
3274;SDS011;1649;53.672;10.064;2024-03-02T13:14:33;19.33;;;11.57;;
3274;SDS011;1649;53.672;10.064;2024-03-02T13:17:00;19.27;;;11.03;;
3274;SDS011;1649;53.672;10.064;2024-03-02T13:19:28;18.83;;;10.90;;
3274;SDS011;1649;53.672;10.064;2024-03-02T13:21:55;17.50;;;11.20;;
3274;SDS011;1649;53.672;10.064;2024-03-02T13:24:22;17.13;;;11.10;;
3274;SDS011;1649;53.672;10.064;2024-03-02T13:26:50;16.30;;;10.20;;
3274;SDS011;1649;53.672;10.064;2024-03-02T13:29:20;16.87;;;10.07;;
3274;SDS011;1649;53.672;10.064;2024-03-02T13:31:46;18.10;;;10.67;;
3274;SDS011;1649;53.672;10.064;2024-03-02T13:34:11;18.93;;;10.40;;
3274;SDS011;1649;53.672;10.064;2024-03-02T13:36:37;16.30;;;9.70;;
3274;SDS011;1649;53.672;10.064;2024-03-02T13:39:03;13.83;;;9.20;;
3274;SDS011;1649;53.672;10.064;2024-03-02T13:41:30;16.13;;;10.13;;
3274;SDS011;1649;53.672;10.064;2024-03-02T13:43:56;15.60;;;10.33;;
3274;SDS011;1649;53.672;10.064;2024-03-02T13:46:22;14.80;;;9.37;;
3274;SDS011;1649;53.672;10.064;2024-03-02T13:48:48;18.17;;;10.27;;
3274;SDS011;1649;53.672;10.064;2024-03-02T13:51:13;16.93;;;9.70;;
3274;SDS011;1649;53.672;10.064;2024-03-02T13:53:39;15.67;;;9.13;;
3274;SDS011;1649;53.672;10.064;2024-03-02T13:56:05;16.07;;;9.50;;
3274;SDS011;1649;53.672;10.064;2024-03-02T13:58:30;16.87;;;10.20;;
3274;SDS011;1649;53.672;10.064;2024-03-02T14:00:57;15.17;;;9.80;;
3274;SDS011;1649;53.672;10.064;2024-03-02T14:03:22;18.00;;;9.67;;
3274;SDS011;1649;53.672;10.064;2024-03-02T14:05:48;16.10;;;9.83;;
3274;SDS011;1649;53.672;10.064;2024-03-02T14:08:15;14.07;;;8.90;;
3274;SDS011;1649;53.672;10.064;2024-03-02T14:10:40;16.17;;;8.40;;
3274;SDS011;1649;53.672;10.064;2024-03-02T14:13:07;16.90;;;9.10;;
3274;SDS011;1649;53.672;10.064;2024-03-02T14:15:33;15.00;;;8.37;;
3274;SDS011;1649;53.672;10.064;2024-03-02T14:17:58;17.10;;;8.67;;
3274;SDS011;1649;53.672;10.064;2024-03-02T14:20:24;15.47;;;9.30;;
3274;SDS011;1649;53.672;10.064;2024-03-02T14:22:49;15.63;;;8.70;;
3274;SDS011;1649;53.672;10.064;2024-03-02T14:25:15;15.03;;;8.83;;
3274;SDS011;1649;53.672;10.064;2024-03-02T14:27:41;14.00;;;9.00;;
3274;SDS011;1649;53.672;10.064;2024-03-02T14:30:07;15.53;;;9.33;;
3274;SDS011;1649;53.672;10.064;2024-03-02T14:32:33;15.63;;;11.13;;
3274;SDS011;1649;53.672;10.064;2024-03-02T14:34:58;16.97;;;10.40;;
3274;SDS011;1649;53.672;10.064;2024-03-02T14:37:24;14.93;;;9.63;;
3274;SDS011;1649;53.672;10.064;2024-03-02T14:39:49;15.33;;;9.30;;
3274;SDS011;1649;53.672;10.064;2024-03-02T14:42:15;15.30;;;9.50;;
3274;SDS011;1649;53.672;10.064;2024-03-02T14:44:41;14.07;;;9.40;;